< < Back
Terminal Aerodrome Forecast


Current Version              Previous Versions:   1  2  3  4  5  6  7  8  9  

Terminal Aerodrome Forecast

513
FTUS42 KTAE 221100 AAA
TAFVLD
TAF AMD
KVLD 221121Z 2211/2312 12004KT P6SM SCT040 BKN250
     FM221800 15005KT P6SM -TSRA BKN040CB
     FM222200 17004KT P6SM SCT050 BKN250=



Latest METAR

450
SAUS70 KWBC 221500 RRA
MTRVLD
METAR KVLD 221453Z 00000KT 10SM SCT026 BKN039 BKN049 28/22 A3010 RMK AO2
SLP200 T02830217 51006


USA.gov is the U.S. government's official web portal to all federal, state and local government web resources and services.